sensor_id;sensor_type;location;lat;lon;timestamp;P1;durP1;ratioP1;P2;durP2;ratioP2
73382;SDS011;61600;48.126;11.542;2023-05-23T00:01:42;9.25;;;6.05;;
73382;SDS011;61600;48.126;11.542;2023-05-23T00:04:09;9.40;;;6.00;;
73382;SDS011;61600;48.126;11.542;2023-05-23T00:06:44;10.50;;;6.45;;
73382;SDS011;61600;48.126;11.542;2023-05-23T00:09:15;11.80;;;7.00;;
73382;SDS011;61600;48.126;11.542;2023-05-23T00:11:41;9.48;;;6.45;;
73382;SDS011;61600;48.126;11.542;2023-05-23T00:14:11;10.52;;;6.93;;
73382;SDS011;61600;48.126;11.542;2023-05-23T00:16:38;10.98;;;6.20;;
73382;SDS011;61600;48.126;11.542;2023-05-23T00:19:05;9.15;;;5.78;;
73382;SDS011;61600;48.126;11.542;2023-05-23T00:23:58;10.40;;;6.85;;
73382;SDS011;61600;48.126;11.542;2023-05-23T00:26:23;10.18;;;6.55;;
73382;SDS011;61600;48.126;11.542;2023-05-23T00:28:49;13.13;;;6.70;;
73382;SDS011;61600;48.126;11.542;2023-05-23T00:31:15;10.10;;;6.15;;
73382;SDS011;61600;48.126;11.542;2023-05-23T00:33:41;9.73;;;6.20;;
73382;SDS011;61600;48.126;11.542;2023-05-23T00:36:07;11.63;;;6.30;;
73382;SDS011;61600;48.126;11.542;2023-05-23T00:38:33;9.02;;;6.28;;
73382;SDS011;61600;48.126;11.542;2023-05-23T00:40:59;10.18;;;6.78;;
73382;SDS011;61600;48.126;11.542;2023-05-23T00:43:26;14.88;;;6.70;;
73382;SDS011;61600;48.126;11.542;2023-05-23T00:45:51;13.73;;;7.53;;
73382;SDS011;61600;48.126;11.542;2023-05-23T00:48:17;12.80;;;6.72;;
73382;SDS011;61600;48.126;11.542;2023-05-23T00:50:43;12.55;;;6.50;;
73382;SDS011;61600;48.126;11.542;2023-05-23T00:53:10;11.02;;;6.38;;
73382;SDS011;61600;48.126;11.542;2023-05-23T00:55:37;11.07;;;7.05;;
73382;SDS011;61600;48.126;11.542;2023-05-23T00:58:03;11.32;;;6.80;;
73382;SDS011;61600;48.126;11.542;2023-05-23T01:00:30;10.50;;;6.72;;
73382;SDS011;61600;48.126;11.542;2023-05-23T01:02:58;10.93;;;6.93;;
73382;SDS011;61600;48.126;11.542;2023-05-23T01:05:30;11.05;;;6.50;;
73382;SDS011;61600;48.126;11.542;2023-05-23T01:07:56;10.25;;;6.43;;
73382;SDS011;61600;48.126;11.542;2023-05-23T01:10:25;10.05;;;6.20;;
73382;SDS011;61600;48.126;11.542;2023-05-23T01:15:50;10.32;;;6.13;;
73382;SDS011;61600;48.126;11.542;2023-05-23T01:21:05;11.20;;;6.35;;
73382;SDS011;61600;48.126;11.542;2023-05-23T01:23:49;11.38;;;6.63;;
73382;SDS011;61600;48.126;11.542;2023-05-23T01:26:49;9.82;;;6.10;;
73382;SDS011;61600;48.126;11.542;2023-05-23T01:29:35;9.18;;;6.18;;
73382;SDS011;61600;48.126;11.542;2023-05-23T01:32:04;12.00;;;6.55;;
73382;SDS011;61600;48.126;11.542;2023-05-23T01:34:35;10.43;;;6.80;;
73382;SDS011;61600;48.126;11.542;2023-05-23T01:37:08;9.88;;;6.25;;
73382;SDS011;61600;48.126;11.542;2023-05-23T01:39:44;10.90;;;6.38;;
73382;SDS011;61600;48.126;11.542;2023-05-23T01:42:22;10.52;;;6.55;;
73382;SDS011;61600;48.126;11.542;2023-05-23T01:44:53;13.95;;;7.47;;
73382;SDS011;61600;48.126;11.542;2023-05-23T01:47:30;12.23;;;7.22;;
73382;SDS011;61600;48.126;11.542;2023-05-23T01:49:57;9.32;;;5.82;;
73382;SDS011;61600;48.126;11.542;2023-05-23T01:54:50;10.85;;;6.90;;
73382;SDS011;61600;48.126;11.542;2023-05-23T01:59:43;10.55;;;6.22;;
73382;SDS011;61600;48.126;11.542;2023-05-23T02:02:09;10.57;;;5.95;;
73382;SDS011;61600;48.126;11.542;2023-05-23T02:04:36;11.85;;;6.97;;
73382;SDS011;61600;48.126;11.542;2023-05-23T02:07:02;12.05;;;6.80;;
73382;SDS011;61600;48.126;11.542;2023-05-23T02:09:27;12.77;;;7.60;;
73382;SDS011;61600;48.126;11.542;2023-05-23T02:11:53;9.85;;;6.80;;
73382;SDS011;61600;48.126;11.542;2023-05-23T02:14:20;11.55;;;7.13;;
73382;SDS011;61600;48.126;11.542;2023-05-23T02:16:45;9.50;;;6.32;;
73382;SDS011;61600;48.126;11.542;2023-05-23T02:19:11;12.57;;;7.78;;
73382;SDS011;61600;48.126;11.542;2023-05-23T02:21:37;10.43;;;6.97;;
73382;SDS011;61600;48.126;11.542;2023-05-23T02:24:02;12.00;;;7.05;;
73382;SDS011;61600;48.126;11.542;2023-05-23T02:26:28;11.40;;;7.28;;
73382;SDS011;61600;48.126;11.542;2023-05-23T02:28:54;11.23;;;6.90;;
73382;SDS011;61600;48.126;11.542;2023-05-23T02:31:20;11.07;;;6.97;;
73382;SDS011;61600;48.126;11.542;2023-05-23T02:33:46;13.88;;;7.43;;
73382;SDS011;61600;48.126;11.542;2023-05-23T02:36:12;13.90;;;6.85;;
73382;SDS011;61600;48.126;11.542;2023-05-23T02:38:38;11.57;;;6.72;;
73382;SDS011;61600;48.126;11.542;2023-05-23T02:41:03;12.85;;;6.82;;
73382;SDS011;61600;48.126;11.542;2023-05-23T02:43:29;12.45;;;6.90;;
73382;SDS011;61600;48.126;11.542;2023-05-23T02:45:55;12.02;;;7.15;;
73382;SDS011;61600;48.126;11.542;2023-05-23T02:48:20;12.50;;;6.85;;
73382;SDS011;61600;48.126;11.542;2023-05-23T02:50:46;12.50;;;7.20;;
73382;SDS011;61600;48.126;11.542;2023-05-23T02:53:12;13.00;;;7.22;;
73382;SDS011;61600;48.126;11.542;2023-05-23T02:55:37;13.80;;;8.25;;
73382;SDS011;61600;48.126;11.542;2023-05-23T02:58:03;14.38;;;7.32;;
73382;SDS011;61600;48.126;11.542;2023-05-23T03:00:30;15.88;;;9.35;;
73382;SDS011;61600;48.126;11.542;2023-05-23T03:02:56;11.82;;;7.20;;
73382;SDS011;61600;48.126;11.542;2023-05-23T03:05:22;12.27;;;8.05;;
73382;SDS011;61600;48.126;11.542;2023-05-23T03:07:48;11.52;;;7.40;;
73382;SDS011;61600;48.126;11.542;2023-05-23T03:10:16;14.15;;;7.75;;
73382;SDS011;61600;48.126;11.542;2023-05-23T03:12:46;12.43;;;7.63;;
73382;SDS011;61600;48.126;11.542;2023-05-23T03:15:12;15.43;;;7.65;;
73382;SDS011;61600;48.126;11.542;2023-05-23T03:17:37;14.00;;;8.27;;
73382;SDS011;61600;48.126;11.542;2023-05-23T03:20:04;14.40;;;7.65;;
73382;SDS011;61600;48.126;11.542;2023-05-23T03:22:34;15.98;;;8.40;;
73382;SDS011;61600;48.126;11.542;2023-05-23T03:25:00;15.38;;;8.50;;
73382;SDS011;61600;48.126;11.542;2023-05-23T03:27:26;12.73;;;8.32;;
73382;SDS011;61600;48.126;11.542;2023-05-23T03:29:52;13.88;;;8.35;;
73382;SDS011;61600;48.126;11.542;2023-05-23T03:32:17;14.48;;;8.32;;
73382;SDS011;61600;48.126;11.542;2023-05-23T03:34:43;14.88;;;8.20;;
73382;SDS011;61600;48.126;11.542;2023-05-23T03:37:09;15.68;;;8.52;;
73382;SDS011;61600;48.126;11.542;2023-05-23T03:39:35;15.05;;;8.77;;
73382;SDS011;61600;48.126;11.542;2023-05-23T03:42:01;15.15;;;8.85;;
73382;SDS011;61600;48.126;11.542;2023-05-23T03:44:26;13.77;;;7.60;;
73382;SDS011;61600;48.126;11.542;2023-05-23T03:46:52;13.73;;;8.70;;
73382;SDS011;61600;48.126;11.542;2023-05-23T03:49:18;12.75;;;8.30;;
73382;SDS011;61600;48.126;11.542;2023-05-23T03:51:44;13.60;;;8.10;;
73382;SDS011;61600;48.126;11.542;2023-05-23T03:54:09;19.73;;;9.43;;
73382;SDS011;61600;48.126;11.542;2023-05-23T03:56:38;13.35;;;8.50;;
73382;SDS011;61600;48.126;11.542;2023-05-23T03:59:07;15.65;;;8.80;;
73382;SDS011;61600;48.126;11.542;2023-05-23T04:01:32;17.27;;;9.63;;
73382;SDS011;61600;48.126;11.542;2023-05-23T04:03:58;16.90;;;9.13;;
73382;SDS011;61600;48.126;11.542;2023-05-23T04:06:24;14.75;;;8.30;;
73382;SDS011;61600;48.126;11.542;2023-05-23T04:08:50;14.32;;;8.93;;
73382;SDS011;61600;48.126;11.542;2023-05-23T04:11:16;15.20;;;8.93;;
73382;SDS011;61600;48.126;11.542;2023-05-23T04:13:42;18.00;;;8.88;;
73382;SDS011;61600;48.126;11.542;2023-05-23T04:16:08;13.20;;;8.35;;
73382;SDS011;61600;48.126;11.542;2023-05-23T04:18:34;16.45;;;9.27;;
73382;SDS011;61600;48.126;11.542;2023-05-23T04:21:00;14.30;;;8.68;;
73382;SDS011;61600;48.126;11.542;2023-05-23T04:23:26;15.68;;;9.52;;
73382;SDS011;61600;48.126;11.542;2023-05-23T04:25:52;12.82;;;8.18;;
73382;SDS011;61600;48.126;11.542;2023-05-23T04:28:17;16.70;;;8.80;;
73382;SDS011;61600;48.126;11.542;2023-05-23T04:30:43;14.63;;;8.55;;
73382;SDS011;61600;48.126;11.542;2023-05-23T04:33:09;16.08;;;9.13;;
73382;SDS011;61600;48.126;11.542;2023-05-23T04:38:04;16.40;;;9.50;;
73382;SDS011;61600;48.126;11.542;2023-05-23T04:40:29;16.60;;;9.30;;
73382;SDS011;61600;48.126;11.542;2023-05-23T04:42:55;17.65;;;9.88;;
73382;SDS011;61600;48.126;11.542;2023-05-23T04:45:22;17.50;;;10.02;;
73382;SDS011;61600;48.126;11.542;2023-05-23T04:47:47;20.77;;;10.90;;
73382;SDS011;61600;48.126;11.542;2023-05-23T04:50:13;16.98;;;9.68;;
73382;SDS011;61600;48.126;11.542;2023-05-23T04:52:39;15.43;;;9.27;;
73382;SDS011;61600;48.126;11.542;2023-05-23T04:55:06;18.48;;;9.25;;
73382;SDS011;61600;48.126;11.542;2023-05-23T04:57:33;17.85;;;10.10;;
73382;SDS011;61600;48.126;11.542;2023-05-23T05:00:00;16.05;;;9.82;;
73382;SDS011;61600;48.126;11.542;2023-05-23T05:02:26;19.92;;;10.38;;
73382;SDS011;61600;48.126;11.542;2023-05-23T05:04:52;16.00;;;9.07;;
73382;SDS011;61600;48.126;11.542;2023-05-23T05:07:17;16.88;;;10.15;;
73382;SDS011;61600;48.126;11.542;2023-05-23T05:09:43;16.65;;;9.25;;
73382;SDS011;61600;48.126;11.542;2023-05-23T05:12:09;16.05;;;9.60;;
73382;SDS011;61600;48.126;11.542;2023-05-23T05:14:35;15.65;;;8.68;;
73382;SDS011;61600;48.126;11.542;2023-05-23T05:19:28;15.88;;;9.52;;
73382;SDS011;61600;48.126;11.542;2023-05-23T05:21:53;16.50;;;9.57;;
73382;SDS011;61600;48.126;11.542;2023-05-23T05:24:20;18.85;;;10.25;;
73382;SDS011;61600;48.126;11.542;2023-05-23T05:26:47;19.95;;;11.18;;
73382;SDS011;61600;48.126;11.542;2023-05-23T05:29:15;20.33;;;11.45;;
73382;SDS011;61600;48.126;11.542;2023-05-23T05:31:41;18.75;;;10.73;;
73382;SDS011;61600;48.126;11.542;2023-05-23T05:34:10;19.08;;;10.05;;
73382;SDS011;61600;48.126;11.542;2023-05-23T05:36:35;18.98;;;10.13;;
73382;SDS011;61600;48.126;11.542;2023-05-23T05:39:01;19.25;;;11.40;;
73382;SDS011;61600;48.126;11.542;2023-05-23T05:41:27;19.13;;;10.52;;
73382;SDS011;61600;48.126;11.542;2023-05-23T05:43:53;20.02;;;10.15;;
73382;SDS011;61600;48.126;11.542;2023-05-23T05:46:19;19.42;;;10.85;;
73382;SDS011;61600;48.126;11.542;2023-05-23T05:48:45;17.63;;;10.75;;
73382;SDS011;61600;48.126;11.542;2023-05-23T05:51:11;19.90;;;11.82;;
73382;SDS011;61600;48.126;11.542;2023-05-23T05:53:37;17.70;;;11.38;;
73382;SDS011;61600;48.126;11.542;2023-05-23T05:56:03;18.55;;;10.45;;
73382;SDS011;61600;48.126;11.542;2023-05-23T05:58:29;19.80;;;10.23;;
73382;SDS011;61600;48.126;11.542;2023-05-23T06:00:55;19.48;;;10.82;;
73382;SDS011;61600;48.126;11.542;2023-05-23T06:03:22;22.90;;;10.80;;
73382;SDS011;61600;48.126;11.542;2023-05-23T06:05:48;19.42;;;10.93;;
73382;SDS011;61600;48.126;11.542;2023-05-23T06:08:14;23.20;;;10.80;;
73382;SDS011;61600;48.126;11.542;2023-05-23T06:10:40;19.05;;;10.70;;
73382;SDS011;61600;48.126;11.542;2023-05-23T06:13:06;20.05;;;11.57;;
73382;SDS011;61600;48.126;11.542;2023-05-23T06:15:31;17.77;;;10.15;;
73382;SDS011;61600;48.126;11.542;2023-05-23T06:17:57;16.77;;;10.07;;
73382;SDS011;61600;48.126;11.542;2023-05-23T06:20:23;22.00;;;11.32;;
73382;SDS011;61600;48.126;11.542;2023-05-23T06:22:49;17.98;;;10.63;;
73382;SDS011;61600;48.126;11.542;2023-05-23T06:25:15;18.85;;;11.15;;
73382;SDS011;61600;48.126;11.542;2023-05-23T06:27:40;22.58;;;11.48;;
73382;SDS011;61600;48.126;11.542;2023-05-23T06:30:06;20.17;;;10.93;;
73382;SDS011;61600;48.126;11.542;2023-05-23T06:32:33;17.63;;;10.20;;
73382;SDS011;61600;48.126;11.542;2023-05-23T06:34:58;22.40;;;11.30;;
73382;SDS011;61600;48.126;11.542;2023-05-23T06:37:24;23.13;;;11.32;;
73382;SDS011;61600;48.126;11.542;2023-05-23T06:39:50;21.23;;;11.00;;
73382;SDS011;61600;48.126;11.542;2023-05-23T06:42:15;21.67;;;11.50;;
73382;SDS011;61600;48.126;11.542;2023-05-23T06:44:41;20.20;;;12.32;;
73382;SDS011;61600;48.126;11.542;2023-05-23T06:47:09;19.83;;;10.45;;
73382;SDS011;61600;48.126;11.542;2023-05-23T06:49:35;20.45;;;12.05;;
73382;SDS011;61600;48.126;11.542;2023-05-23T06:52:01;21.88;;;11.85;;
73382;SDS011;61600;48.126;11.542;2023-05-23T06:54:26;20.85;;;11.63;;
73382;SDS011;61600;48.126;11.542;2023-05-23T06:56:52;20.45;;;12.00;;
73382;SDS011;61600;48.126;11.542;2023-05-23T06:59:18;20.98;;;11.88;;
73382;SDS011;61600;48.126;11.542;2023-05-23T07:01:44;20.80;;;12.32;;
73382;SDS011;61600;48.126;11.542;2023-05-23T07:04:09;22.48;;;11.32;;
73382;SDS011;61600;48.126;11.542;2023-05-23T07:09:03;20.52;;;11.82;;
73382;SDS011;61600;48.126;11.542;2023-05-23T07:11:29;19.55;;;12.43;;
73382;SDS011;61600;48.126;11.542;2023-05-23T07:13:55;21.20;;;12.38;;
73382;SDS011;61600;48.126;11.542;2023-05-23T07:16:21;20.95;;;10.90;;
73382;SDS011;61600;48.126;11.542;2023-05-23T07:18:48;22.00;;;12.13;;
73382;SDS011;61600;48.126;11.542;2023-05-23T07:21:14;25.38;;;11.55;;
73382;SDS011;61600;48.126;11.542;2023-05-23T07:23:40;25.20;;;13.63;;
73382;SDS011;61600;48.126;11.542;2023-05-23T07:26:05;19.75;;;12.80;;
73382;SDS011;61600;48.126;11.542;2023-05-23T07:28:34;23.23;;;12.35;;
73382;SDS011;61600;48.126;11.542;2023-05-23T07:31:00;23.23;;;11.68;;
73382;SDS011;61600;48.126;11.542;2023-05-23T07:33:26;22.90;;;13.27;;
73382;SDS011;61600;48.126;11.542;2023-05-23T07:35:52;21.88;;;11.80;;
73382;SDS011;61600;48.126;11.542;2023-05-23T07:38:18;20.50;;;11.57;;
73382;SDS011;61600;48.126;11.542;2023-05-23T07:40:44;26.73;;;12.82;;
73382;SDS011;61600;48.126;11.542;2023-05-23T07:43:10;24.17;;;12.25;;
73382;SDS011;61600;48.126;11.542;2023-05-23T07:45:35;20.20;;;11.32;;
73382;SDS011;61600;48.126;11.542;2023-05-23T07:48:01;25.27;;;12.60;;
73382;SDS011;61600;48.126;11.542;2023-05-23T07:50:27;25.15;;;12.88;;
73382;SDS011;61600;48.126;11.542;2023-05-23T07:52:53;24.77;;;12.07;;
73382;SDS011;61600;48.126;11.542;2023-05-23T07:55:19;23.23;;;12.60;;
73382;SDS011;61600;48.126;11.542;2023-05-23T07:57:45;22.90;;;11.90;;
73382;SDS011;61600;48.126;11.542;2023-05-23T08:00:11;25.02;;;13.68;;
73382;SDS011;61600;48.126;11.542;2023-05-23T08:02:37;22.60;;;13.23;;
73382;SDS011;61600;48.126;11.542;2023-05-23T08:05:03;21.83;;;12.85;;
73382;SDS011;61600;48.126;11.542;2023-05-23T08:07:29;24.98;;;13.40;;
73382;SDS011;61600;48.126;11.542;2023-05-23T08:09:55;23.70;;;13.45;;
73382;SDS011;61600;48.126;11.542;2023-05-23T08:12:21;24.40;;;13.77;;
73382;SDS011;61600;48.126;11.542;2023-05-23T08:14:47;22.02;;;13.35;;
73382;SDS011;61600;48.126;11.542;2023-05-23T08:17:12;23.20;;;13.38;;
73382;SDS011;61600;48.126;11.542;2023-05-23T08:19:38;24.85;;;13.70;;
73382;SDS011;61600;48.126;11.542;2023-05-23T08:22:04;26.15;;;13.88;;
73382;SDS011;61600;48.126;11.542;2023-05-23T08:24:30;22.83;;;13.88;;
73382;SDS011;61600;48.126;11.542;2023-05-23T08:26:56;23.50;;;13.52;;
73382;SDS011;61600;48.126;11.542;2023-05-23T08:29:21;25.75;;;13.27;;
73382;SDS011;61600;48.126;11.542;2023-05-23T08:31:47;24.20;;;13.70;;
73382;SDS011;61600;48.126;11.542;2023-05-23T08:34:13;23.33;;;13.80;;
73382;SDS011;61600;48.126;11.542;2023-05-23T08:36:39;20.50;;;12.13;;
73382;SDS011;61600;48.126;11.542;2023-05-23T08:39:07;19.98;;;12.02;;
73382;SDS011;61600;48.126;11.542;2023-05-23T08:41:33;23.45;;;13.23;;
73382;SDS011;61600;48.126;11.542;2023-05-23T08:43:59;21.60;;;12.60;;
73382;SDS011;61600;48.126;11.542;2023-05-23T08:46:25;21.35;;;13.60;;
73382;SDS011;61600;48.126;11.542;2023-05-23T08:48:52;28.33;;;12.43;;
73382;SDS011;61600;48.126;11.542;2023-05-23T08:51:24;21.42;;;12.77;;
73382;SDS011;61600;48.126;11.542;2023-05-23T08:53:51;23.17;;;12.38;;
73382;SDS011;61600;48.126;11.542;2023-05-23T08:56:20;26.27;;;13.23;;
73382;SDS011;61600;48.126;11.542;2023-05-23T08:58:47;20.75;;;12.35;;
73382;SDS011;61600;48.126;11.542;2023-05-23T09:01:16;23.80;;;13.45;;
73382;SDS011;61600;48.126;11.542;2023-05-23T09:03:44;24.98;;;13.43;;
73382;SDS011;61600;48.126;11.542;2023-05-23T09:06:10;22.67;;;13.38;;
73382;SDS011;61600;48.126;11.542;2023-05-23T09:08:37;23.45;;;13.82;;
73382;SDS011;61600;48.126;11.542;2023-05-23T09:11:08;21.70;;;13.25;;
73382;SDS011;61600;48.126;11.542;2023-05-23T09:13:37;19.50;;;12.05;;
73382;SDS011;61600;48.126;11.542;2023-05-23T09:16:06;22.92;;;12.60;;
73382;SDS011;61600;48.126;11.542;2023-05-23T09:18:37;23.48;;;13.48;;
73382;SDS011;61600;48.126;11.542;2023-05-23T09:21:05;41.22;;;14.38;;
73382;SDS011;61600;48.126;11.542;2023-05-23T09:23:32;22.23;;;12.35;;
73382;SDS011;61600;48.126;11.542;2023-05-23T09:26:02;21.92;;;13.50;;
73382;SDS011;61600;48.126;11.542;2023-05-23T09:28:33;23.48;;;13.23;;
73382;SDS011;61600;48.126;11.542;2023-05-23T09:31:00;24.63;;;13.30;;
73382;SDS011;61600;48.126;11.542;2023-05-23T09:33:28;24.17;;;13.15;;
73382;SDS011;61600;48.126;11.542;2023-05-23T09:36:12;23.38;;;12.88;;
73382;SDS011;61600;48.126;11.542;2023-05-23T09:38:39;24.42;;;13.57;;
73382;SDS011;61600;48.126;11.542;2023-05-23T09:41:06;29.30;;;14.55;;
73382;SDS011;61600;48.126;11.542;2023-05-23T09:43:32;26.25;;;13.63;;
73382;SDS011;61600;48.126;11.542;2023-05-23T09:46:08;29.05;;;15.38;;
73382;SDS011;61600;48.126;11.542;2023-05-23T09:48:35;26.13;;;14.50;;
73382;SDS011;61600;48.126;11.542;2023-05-23T09:53:31;31.42;;;14.40;;
73382;SDS011;61600;48.126;11.542;2023-05-23T09:55:57;28.63;;;15.27;;
73382;SDS011;61600;48.126;11.542;2023-05-23T09:58:24;23.98;;;13.75;;
73382;SDS011;61600;48.126;11.542;2023-05-23T10:00:52;26.13;;;13.93;;
73382;SDS011;61600;48.126;11.542;2023-05-23T10:03:26;25.92;;;14.48;;
73382;SDS011;61600;48.126;11.542;2023-05-23T10:05:58;27.17;;;14.00;;
73382;SDS011;61600;48.126;11.542;2023-05-23T10:08:26;27.30;;;14.68;;
73382;SDS011;61600;48.126;11.542;2023-05-23T10:13:44;23.80;;;13.05;;
73382;SDS011;61600;48.126;11.542;2023-05-23T10:16:24;26.85;;;14.85;;
73382;SDS011;61600;48.126;11.542;2023-05-23T10:19:09;28.90;;;14.20;;
73382;SDS011;61600;48.126;11.542;2023-05-23T10:21:43;26.67;;;14.50;;
73382;SDS011;61600;48.126;11.542;2023-05-23T10:24:14;25.13;;;14.95;;
73382;SDS011;61600;48.126;11.542;2023-05-23T10:26:40;25.80;;;14.07;;
73382;SDS011;61600;48.126;11.542;2023-05-23T10:29:08;28.27;;;15.30;;
73382;SDS011;61600;48.126;11.542;2023-05-23T10:31:34;25.73;;;14.77;;
73382;SDS011;61600;48.126;11.542;2023-05-23T10:34:07;24.38;;;14.10;;
73382;SDS011;61600;48.126;11.542;2023-05-23T10:36:47;24.33;;;13.45;;
73382;SDS011;61600;48.126;11.542;2023-05-23T10:42:12;25.45;;;14.43;;
73382;SDS011;61600;48.126;11.542;2023-05-23T10:44:43;26.92;;;15.43;;
73382;SDS011;61600;48.126;11.542;2023-05-23T10:47:08;24.40;;;13.77;;
73382;SDS011;61600;48.126;11.542;2023-05-23T10:49:37;20.58;;;13.40;;
73382;SDS011;61600;48.126;11.542;2023-05-23T10:52:16;27.80;;;13.85;;
73382;SDS011;61600;48.126;11.542;2023-05-23T10:54:43;26.88;;;13.55;;
73382;SDS011;61600;48.126;11.542;2023-05-23T10:57:14;23.67;;;12.25;;
73382;SDS011;61600;48.126;11.542;2023-05-23T10:59:41;27.60;;;14.38;;
73382;SDS011;61600;48.126;11.542;2023-05-23T11:02:14;19.40;;;12.77;;
73382;SDS011;61600;48.126;11.542;2023-05-23T11:04:42;19.55;;;12.32;;
73382;SDS011;61600;48.126;11.542;2023-05-23T11:10:09;24.88;;;13.10;;
73382;SDS011;61600;48.126;11.542;2023-05-23T11:12:36;20.52;;;12.77;;
73382;SDS011;61600;48.126;11.542;2023-05-23T11:17:51;22.45;;;11.88;;
73382;SDS011;61600;48.126;11.542;2023-05-23T11:20:18;16.60;;;10.70;;
73382;SDS011;61600;48.126;11.542;2023-05-23T11:23:01;19.35;;;11.48;;
73382;SDS011;61600;48.126;11.542;2023-05-23T11:25:38;16.27;;;10.43;;
73382;SDS011;61600;48.126;11.542;2023-05-23T11:28:09;17.67;;;11.15;;
73382;SDS011;61600;48.126;11.542;2023-05-23T11:30:36;17.92;;;10.48;;
73382;SDS011;61600;48.126;11.542;2023-05-23T11:33:06;22.00;;;11.00;;
73382;SDS011;61600;48.126;11.542;2023-05-23T11:35:44;16.58;;;9.75;;
73382;SDS011;61600;48.126;11.542;2023-05-23T11:38:11;17.08;;;10.68;;
73382;SDS011;61600;48.126;11.542;2023-05-23T11:40:39;17.70;;;11.20;;
73382;SDS011;61600;48.126;11.542;2023-05-23T11:43:07;14.43;;;9.45;;
73382;SDS011;61600;48.126;11.542;2023-05-23T11:45:35;16.00;;;9.15;;
73382;SDS011;61600;48.126;11.542;2023-05-23T11:48:06;17.40;;;10.25;;
73382;SDS011;61600;48.126;11.542;2023-05-23T11:50:46;16.15;;;9.90;;
73382;SDS011;61600;48.126;11.542;2023-05-23T11:53:16;15.45;;;10.85;;
73382;SDS011;61600;48.126;11.542;2023-05-23T11:55:49;17.35;;;10.77;;
73382;SDS011;61600;48.126;11.542;2023-05-23T11:58:26;18.38;;;10.75;;
73382;SDS011;61600;48.126;11.542;2023-05-23T12:01:03;16.83;;;10.70;;
73382;SDS011;61600;48.126;11.542;2023-05-23T12:03:32;16.33;;;10.43;;
73382;SDS011;61600;48.126;11.542;2023-05-23T12:05:58;17.60;;;11.02;;
73382;SDS011;61600;48.126;11.542;2023-05-23T12:08:26;15.68;;;10.27;;
73382;SDS011;61600;48.126;11.542;2023-05-23T12:10:56;16.25;;;9.77;;
73382;SDS011;61600;48.126;11.542;2023-05-23T12:13:23;15.80;;;10.38;;
73382;SDS011;61600;48.126;11.542;2023-05-23T12:16:00;16.88;;;10.48;;
73382;SDS011;61600;48.126;11.542;2023-05-23T12:18:27;19.23;;;10.93;;
73382;SDS011;61600;48.126;11.542;2023-05-23T12:20:54;14.93;;;9.70;;
73382;SDS011;61600;48.126;11.542;2023-05-23T12:23:25;19.35;;;11.90;;
73382;SDS011;61600;48.126;11.542;2023-05-23T12:25:52;19.48;;;10.90;;
73382;SDS011;61600;48.126;11.542;2023-05-23T12:28:20;18.02;;;10.80;;
73382;SDS011;61600;48.126;11.542;2023-05-23T12:30:58;19.40;;;10.98;;
73382;SDS011;61600;48.126;11.542;2023-05-23T12:33:24;17.25;;;10.18;;
73382;SDS011;61600;48.126;11.542;2023-05-23T12:35:50;17.00;;;10.05;;
73382;SDS011;61600;48.126;11.542;2023-05-23T12:38:16;14.60;;;9.90;;
73382;SDS011;61600;48.126;11.542;2023-05-23T12:40:42;14.18;;;8.82;;
73382;SDS011;61600;48.126;11.542;2023-05-23T12:43:08;14.98;;;9.05;;
73382;SDS011;61600;48.126;11.542;2023-05-23T12:45:35;17.20;;;10.23;;
73382;SDS011;61600;48.126;11.542;2023-05-23T12:50:28;20.15;;;9.68;;
73382;SDS011;61600;48.126;11.542;2023-05-23T12:52:54;14.25;;;9.57;;
73382;SDS011;61600;48.126;11.542;2023-05-23T12:55:20;13.48;;;9.20;;
73382;SDS011;61600;48.126;11.542;2023-05-23T12:57:46;16.90;;;9.52;;
73382;SDS011;61600;48.126;11.542;2023-05-23T13:00:11;14.48;;;8.65;;
73382;SDS011;61600;48.126;11.542;2023-05-23T13:02:38;13.95;;;9.15;;
73382;SDS011;61600;48.126;11.542;2023-05-23T13:05:04;18.63;;;9.75;;
73382;SDS011;61600;48.126;11.542;2023-05-23T13:07:30;22.50;;;8.95;;
73382;SDS011;61600;48.126;11.542;2023-05-23T13:09:57;14.30;;;9.13;;
73382;SDS011;61600;48.126;11.542;2023-05-23T13:12:23;13.68;;;8.23;;
73382;SDS011;61600;48.126;11.542;2023-05-23T13:14:49;12.55;;;8.27;;
73382;SDS011;61600;48.126;11.542;2023-05-23T13:17:14;13.65;;;7.78;;
73382;SDS011;61600;48.126;11.542;2023-05-23T13:19:40;15.88;;;9.25;;
73382;SDS011;61600;48.126;11.542;2023-05-23T13:22:06;19.58;;;9.75;;
73382;SDS011;61600;48.126;11.542;2023-05-23T13:24:35;14.40;;;8.70;;
73382;SDS011;61600;48.126;11.542;2023-05-23T13:27:04;11.50;;;8.45;;
73382;SDS011;61600;48.126;11.542;2023-05-23T13:29:31;12.65;;;8.07;;
73382;SDS011;61600;48.126;11.542;2023-05-23T13:31:59;13.35;;;8.80;;
73382;SDS011;61600;48.126;11.542;2023-05-23T13:34:25;15.90;;;9.10;;
73382;SDS011;61600;48.126;11.542;2023-05-23T13:36:53;15.00;;;8.65;;
73382;SDS011;61600;48.126;11.542;2023-05-23T13:39:19;13.70;;;7.63;;
73382;SDS011;61600;48.126;11.542;2023-05-23T13:41:48;15.93;;;9.45;;
73382;SDS011;61600;48.126;11.542;2023-05-23T13:44:14;14.60;;;8.90;;
73382;SDS011;61600;48.126;11.542;2023-05-23T13:46:41;12.18;;;7.80;;
73382;SDS011;61600;48.126;11.542;2023-05-23T13:49:07;13.23;;;9.10;;
73382;SDS011;61600;48.126;11.542;2023-05-23T13:51:33;14.18;;;8.43;;
73382;SDS011;61600;48.126;11.542;2023-05-23T13:54:01;10.85;;;8.20;;
73382;SDS011;61600;48.126;11.542;2023-05-23T13:56:28;14.15;;;8.15;;
73382;SDS011;61600;48.126;11.542;2023-05-23T14:01:20;16.95;;;8.43;;
73382;SDS011;61600;48.126;11.542;2023-05-23T14:03:45;15.35;;;8.63;;
73382;SDS011;61600;48.126;11.542;2023-05-23T14:06:17;15.95;;;8.75;;
73382;SDS011;61600;48.126;11.542;2023-05-23T14:08:42;20.63;;;8.38;;
73382;SDS011;61600;48.126;11.542;2023-05-23T14:11:08;15.70;;;8.68;;
73382;SDS011;61600;48.126;11.542;2023-05-23T14:13:35;18.83;;;9.40;;
73382;SDS011;61600;48.126;11.542;2023-05-23T14:16:01;14.65;;;8.23;;
73382;SDS011;61600;48.126;11.542;2023-05-23T14:18:27;21.90;;;7.88;;
73382;SDS011;61600;48.126;11.542;2023-05-23T14:20:53;17.08;;;7.82;;
73382;SDS011;61600;48.126;11.542;2023-05-23T14:23:18;16.45;;;8.32;;
73382;SDS011;61600;48.126;11.542;2023-05-23T14:25:44;13.25;;;8.00;;
73382;SDS011;61600;48.126;11.542;2023-05-23T14:28:10;13.55;;;8.32;;
73382;SDS011;61600;48.126;11.542;2023-05-23T14:30:37;13.77;;;8.43;;
73382;SDS011;61600;48.126;11.542;2023-05-23T14:33:03;11.30;;;8.65;;
73382;SDS011;61600;48.126;11.542;2023-05-23T14:35:28;11.73;;;7.35;;
73382;SDS011;61600;48.126;11.542;2023-05-23T14:37:55;11.70;;;7.22;;
73382;SDS011;61600;48.126;11.542;2023-05-23T14:40:20;9.50;;;5.88;;
73382;SDS011;61600;48.126;11.542;2023-05-23T14:42:46;11.02;;;6.55;;
73382;SDS011;61600;48.126;11.542;2023-05-23T14:45:12;13.63;;;7.13;;
73382;SDS011;61600;48.126;11.542;2023-05-23T14:47:38;13.65;;;8.68;;
73382;SDS011;61600;48.126;11.542;2023-05-23T14:50:04;15.60;;;7.97;;
73382;SDS011;61600;48.126;11.542;2023-05-23T14:52:30;10.93;;;7.65;;
73382;SDS011;61600;48.126;11.542;2023-05-23T14:54:56;14.55;;;8.15;;
73382;SDS011;61600;48.126;11.542;2023-05-23T14:57:22;13.07;;;7.57;;